Time;durP1;ratioP1;P1;durP2;ratioP2;P2;SDS_P1;SDS_P2;PMS_P1;PMS_P2;Temp;Humidity;BMP_temperature;BMP_pressure;BME280_temperature;BME280_humidity;BME280_pressure;Samples;Min_cycle;Max_cycle;Signal;HPM_P1;HPM_P2
2022/08/10 00:00:57;;;;;;;9.75;3.00;;;;;;;;;;5038391;28;20039;-64
2022/08/10 00:03:23;;;;;;;9.75;3.10;;;;;;;;;;5036498;28;20127;-64
2022/08/10 00:05:49;;;;;;;9.65;3.47;;;;;;;;;;5040866;28;20035;-64
2022/08/10 00:08:16;;;;;;;8.43;3.05;;;;;;;;;;5035790;28;20454;-64
2022/08/10 00:10:42;;;;;;;9.73;3.00;;;;;;;;;;5042606;28;20036;-64
2022/08/10 00:13:08;;;;;;;9.48;3.25;;;;;;;;;;5041763;28;20925;-64
2022/08/10 00:15:34;;;;;;;10.13;3.40;;;;;;;;;;5038996;28;20498;-65
2022/08/10 00:18:00;;;;;;;7.63;3.05;;;;;;;;;;5039373;28;20108;-65
2022/08/10 00:20:26;;;;;;;7.95;3.00;;;;;;;;;;5031514;28;20078;-65
2022/08/10 00:22:52;;;;;;;10.45;2.80;;;;;;;;;;5041399;28;20147;-65
2022/08/10 00:25:18;;;;;;;8.68;2.80;;;;;;;;;;5030996;28;20032;-65
2022/08/10 00:27:45;;;;;;;7.22;2.72;;;;;;;;;;5039089;28;20092;-65
2022/08/10 00:30:11;;;;;;;7.18;2.78;;;;;;;;;;5042052;28;20039;-65
2022/08/10 00:32:37;;;;;;;9.68;3.05;;;;;;;;;;5038716;28;20356;-65
2022/08/10 00:35:04;;;;;;;8.48;2.95;;;;;;;;;;5039251;28;20123;-65
2022/08/10 00:37:30;;;;;;;11.05;2.90;;;;;;;;;;5034494;28;20031;-66
2022/08/10 00:39:56;;;;;;;7.80;2.88;;;;;;;;;;5036185;28;20021;-65
2022/08/10 00:42:22;;;;;;;7.25;2.42;;;;;;;;;;5034316;28;20036;-64
2022/08/10 00:44:49;;;;;;;8.65;2.90;;;;;;;;;;5037663;28;20043;-65
2022/08/10 00:47:15;;;;;;;7.97;2.50;;;;;;;;;;5037181;28;20105;-65
2022/08/10 00:49:41;;;;;;;6.75;2.40;;;;;;;;;;5040897;28;20037;-65
2022/08/10 00:52:08;;;;;;;8.90;2.70;;;;;;;;;;5038549;28;20488;-65
2022/08/10 00:54:35;;;;;;;7.90;2.53;;;;;;;;;;5036176;28;20045;-65
2022/08/10 00:57:01;;;;;;;10.85;2.70;;;;;;;;;;5040268;28;20029;-64
2022/08/10 00:59:28;;;;;;;8.63;2.75;;;;;;;;;;5038875;28;20082;-66
2022/08/10 01:01:55;;;;;;;8.00;2.70;;;;;;;;;;5033829;28;20043;-67
2022/08/10 01:04:21;;;;;;;8.07;2.78;;;;;;;;;;5037437;28;20447;-66
2022/08/10 01:06:59;;;;;;;7.63;2.53;;;;;;;;;;5034252;28;20581;-65
2022/08/10 01:09:43;;;;;;;8.40;3.00;;;;;;;;;;5038107;28;20032;-66
2022/08/10 01:12:33;;;;;;;8.50;2.83;;;;;;;;;;5040177;28;20353;-65
2022/08/10 01:15:02;;;;;;;9.20;2.88;;;;;;;;;;4997759;28;21076;-65
2022/08/10 01:17:43;;;;;;;6.75;2.60;;;;;;;;;;4991650;28;20663;-64
2022/08/10 01:20:14;;;;;;;7.82;2.60;;;;;;;;;;4995203;28;20274;-65
2022/08/10 01:22:52;;;;;;;6.70;2.90;;;;;;;;;;4997534;28;21166;-65
2022/08/10 01:25:18;;;;;;;7.45;2.88;;;;;;;;;;4979917;28;20045;-65
2022/08/10 01:27:59;;;;;;;7.60;2.70;;;;;;;;;;4999398;28;20529;-66
2022/08/10 01:30:27;;;;;;;7.47;2.50;;;;;;;;;;4975660;28;20193;-65
2022/08/10 01:33:03;;;;;;;8.02;2.50;;;;;;;;;;5000077;28;20290;-65
2022/08/10 01:35:32;;;;;;;7.30;2.75;;;;;;;;;;4991490;28;20160;-65
2022/08/10 01:38:03;;;;;;;8.93;2.33;;;;;;;;;;5000417;28;20029;-65
2022/08/10 01:40:31;;;;;;;6.85;2.78;;;;;;;;;;4996429;28;20590;-65
2022/08/10 01:42:58;;;;;;;10.18;2.58;;;;;;;;;;5001466;28;20033;-66
2022/08/10 01:45:26;;;;;;;6.63;2.67;;;;;;;;;;4987646;28;20718;-65
2022/08/10 01:50:41;;;;;;;8.43;2.80;;;;;;;;;;4996435;28;20134;-66
2022/08/10 01:53:10;;;;;;;6.65;2.72;;;;;;;;;;5018718;28;20075;-65
2022/08/10 01:55:38;;;;;;;7.97;2.78;;;;;;;;;;5018597;28;20124;-65
2022/08/10 01:58:06;;;;;;;10.50;2.72;;;;;;;;;;5013804;28;20030;-65
2022/08/10 02:00:33;;;;;;;7.72;2.80;;;;;;;;;;5015704;28;20017;-65
2022/08/10 02:03:00;;;;;;;7.03;2.72;;;;;;;;;;5018090;28;20497;-65
2022/08/10 02:05:26;;;;;;;8.43;2.60;;;;;;;;;;5011361;28;20072;-65
2022/08/10 02:07:55;;;;;;;7.97;2.85;;;;;;;;;;5017227;28;20055;-65
2022/08/10 02:10:22;;;;;;;8.27;2.80;;;;;;;;;;5015468;28;20116;-65
2022/08/10 02:12:48;;;;;;;7.30;2.50;;;;;;;;;;5016378;28;20342;-65
2022/08/10 02:15:16;;;;;;;9.73;2.80;;;;;;;;;;5011885;28;20067;-66
2022/08/10 02:17:45;;;;;;;7.00;2.58;;;;;;;;;;5013742;28;20172;-65
2022/08/10 02:20:15;;;;;;;7.63;2.70;;;;;;;;;;5016608;28;20207;-65
2022/08/10 02:22:42;;;;;;;6.85;2.60;;;;;;;;;;5020688;28;20411;-65
2022/08/10 02:25:09;;;;;;;7.50;2.75;;;;;;;;;;5021243;28;20036;-65
2022/08/10 02:27:36;;;;;;;8.85;2.67;;;;;;;;;;5017315;28;20251;-65
2022/08/10 02:30:03;;;;;;;6.18;2.45;;;;;;;;;;5016897;28;20358;-65
2022/08/10 02:32:30;;;;;;;6.93;2.53;;;;;;;;;;5017424;28;20044;-65
2022/08/10 02:34:57;;;;;;;6.15;2.45;;;;;;;;;;5019978;28;20024;-66
2022/08/10 02:37:25;;;;;;;8.90;2.63;;;;;;;;;;5015906;28;20463;-65
2022/08/10 02:39:52;;;;;;;6.82;2.58;;;;;;;;;;5019344;28;20071;-65
2022/08/10 02:42:41;;;;;;;6.65;2.65;;;;;;;;;;5016874;28;20446;-65
2022/08/10 02:45:10;;;;;;;6.45;2.70;;;;;;;;;;5020479;28;20032;-65
2022/08/10 02:47:41;;;;;;;5.88;2.60;;;;;;;;;;5017548;28;20029;-65
2022/08/10 02:50:08;;;;;;;7.50;2.85;;;;;;;;;;5025199;28;20053;-65
2022/08/10 02:52:54;;;;;;;6.93;2.70;;;;;;;;;;5037133;28;20040;-65
2022/08/10 02:55:26;;;;;;;6.10;2.60;;;;;;;;;;5036156;28;20362;-65
2022/08/10 02:57:53;;;;;;;6.78;2.63;;;;;;;;;;5042410;28;20156;-65
2022/08/10 03:00:20;;;;;;;7.68;2.70;;;;;;;;;;5035851;28;20111;-65
2022/08/10 03:02:48;;;;;;;5.72;2.22;;;;;;;;;;5045971;28;20035;-65
2022/08/10 03:05:16;;;;;;;6.68;2.33;;;;;;;;;;5037341;28;20408;-65
2022/08/10 03:07:46;;;;;;;8.27;2.60;;;;;;;;;;5042599;28;20040;-65
2022/08/10 03:10:27;;;;;;;5.70;2.40;;;;;;;;;;5037496;28;20039;-66
2022/08/10 03:12:58;;;;;;;6.75;2.40;;;;;;;;;;5042917;28;20827;-66
2022/08/10 03:15:24;;;;;;;7.85;2.30;;;;;;;;;;5037421;28;20032;-66
2022/08/10 03:17:52;;;;;;;8.57;2.50;;;;;;;;;;5041913;28;20033;-66
2022/08/10 03:20:19;;;;;;;6.85;2.65;;;;;;;;;;5036130;28;20025;-66
2022/08/10 03:22:46;;;;;;;8.38;2.50;;;;;;;;;;5039862;28;20020;-66
2022/08/10 03:25:13;;;;;;;7.95;2.50;;;;;;;;;;5034313;28;20028;-67
2022/08/10 03:27:40;;;;;;;7.68;2.67;;;;;;;;;;5045644;28;20036;-65
2022/08/10 03:30:06;;;;;;;6.40;2.63;;;;;;;;;;5042329;28;20028;-66
2022/08/10 03:32:33;;;;;;;8.77;2.80;;;;;;;;;;5035216;28;20386;-64
2022/08/10 03:34:59;;;;;;;8.43;2.88;;;;;;;;;;5034782;28;20040;-65
2022/08/10 03:37:26;;;;;;;7.00;2.83;;;;;;;;;;5038603;28;20025;-64
2022/08/10 03:39:53;;;;;;;8.05;3.00;;;;;;;;;;5037665;28;20775;-64
2022/08/10 03:42:20;;;;;;;6.95;2.67;;;;;;;;;;5032925;28;20463;-65
2022/08/10 03:44:48;;;;;;;9.25;2.83;;;;;;;;;;5043280;28;20491;-65
2022/08/10 03:47:15;;;;;;;9.35;2.72;;;;;;;;;;5035709;28;20044;-65
2022/08/10 03:49:42;;;;;;;9.68;2.97;;;;;;;;;;5040122;28;20451;-65
2022/08/10 03:52:09;;;;;;;6.35;2.70;;;;;;;;;;5042200;28;20111;-64
2022/08/10 03:54:35;;;;;;;8.95;2.83;;;;;;;;;;5034893;28;20024;-64
2022/08/10 03:57:02;;;;;;;8.20;2.70;;;;;;;;;;5042403;28;20031;-65
2022/08/10 03:59:30;;;;;;;7.40;2.65;;;;;;;;;;5032070;28;20025;-66
2022/08/10 04:01:56;;;;;;;8.18;2.85;;;;;;;;;;5036537;28;20217;-65
2022/08/10 04:04:22;;;;;;;8.18;2.80;;;;;;;;;;5035559;28;20425;-64
2022/08/10 04:06:48;;;;;;;12.77;2.88;;;;;;;;;;5039537;28;20111;-64
2022/08/10 04:09:16;;;;;;;10.88;2.80;;;;;;;;;;5039287;28;20114;-64
2022/08/10 04:11:42;;;;;;;6.38;2.67;;;;;;;;;;5041968;28;20550;-65
2022/08/10 04:14:08;;;;;;;6.47;2.50;;;;;;;;;;5040233;28;20032;-65
2022/08/10 04:16:34;;;;;;;8.13;3.03;;;;;;;;;;5036158;28;20068;-64
2022/08/10 04:19:01;;;;;;;8.80;3.00;;;;;;;;;;5040056;28;20024;-64
2022/08/10 04:21:30;;;;;;;8.82;3.20;;;;;;;;;;5038127;28;20209;-64
2022/08/10 04:23:57;;;;;;;8.25;2.95;;;;;;;;;;5036630;28;20024;-65
2022/08/10 04:26:24;;;;;;;9.00;3.40;;;;;;;;;;5039693;28;20032;-65
2022/08/10 04:28:50;;;;;;;11.43;3.50;;;;;;;;;;5039728;28;20554;-65
2022/08/10 04:31:16;;;;;;;11.38;3.42;;;;;;;;;;5038712;28;20039;-65
2022/08/10 04:33:45;;;;;;;9.43;3.50;;;;;;;;;;5045201;28;20036;-65
2022/08/10 04:36:12;;;;;;;8.73;3.45;;;;;;;;;;5037090;28;20118;-65
2022/08/10 04:38:40;;;;;;;12.00;3.45;;;;;;;;;;5041311;28;20902;-64
2022/08/10 04:41:06;;;;;;;11.75;3.65;;;;;;;;;;5040528;28;20040;-65
2022/08/10 04:43:32;;;;;;;9.00;3.70;;;;;;;;;;5040400;28;20042;-64
2022/08/10 04:45:59;;;;;;;11.55;3.53;;;;;;;;;;5041751;28;20041;-65
2022/08/10 04:48:25;;;;;;;14.68;3.33;;;;;;;;;;5034832;28;20581;-66
2022/08/10 04:50:51;;;;;;;19.15;3.63;;;;;;;;;;5061559;28;20086;-65
2022/08/10 04:53:18;;;;;;;12.40;3.30;;;;;;;;;;5036991;28;20366;-65
2022/08/10 04:55:44;;;;;;;22.25;4.30;;;;;;;;;;5044825;28;20036;-65
2022/08/10 04:58:10;;;;;;;10.98;3.20;;;;;;;;;;5044547;28;20025;-65
2022/08/10 05:00:36;;;;;;;14.38;3.72;;;;;;;;;;5043022;28;20051;-65
2022/08/10 05:03:02;;;;;;;10.02;3.05;;;;;;;;;;5044969;28;20031;-65
2022/08/10 05:05:28;;;;;;;7.68;2.78;;;;;;;;;;5040747;28;20035;-65
2022/08/10 05:07:54;;;;;;;10.48;3.05;;;;;;;;;;5045879;28;20063;-64
2022/08/10 05:10:21;;;;;;;7.72;2.80;;;;;;;;;;5044009;28;20450;-64
2022/08/10 05:12:47;;;;;;;10.15;2.80;;;;;;;;;;5049390;28;20033;-64
2022/08/10 05:15:17;;;;;;;8.25;3.00;;;;;;;;;;5041968;28;20466;-64
2022/08/10 05:17:43;;;;;;;7.68;2.85;;;;;;;;;;5046762;28;20147;-65
2022/08/10 05:20:10;;;;;;;10.15;2.85;;;;;;;;;;5041290;28;20036;-65
2022/08/10 05:22:45;;;;;;;11.07;3.08;;;;;;;;;;5048034;28;20780;-65
2022/08/10 05:25:13;;;;;;;8.02;2.63;;;;;;;;;;5041454;28;20115;-66
2022/08/10 05:27:39;;;;;;;9.05;2.60;;;;;;;;;;5043552;28;20029;-65
2022/08/10 05:30:06;;;;;;;9.80;2.92;;;;;;;;;;5050632;28;20043;-65
2022/08/10 05:32:33;;;;;;;8.57;2.88;;;;;;;;;;5041631;28;20762;-65
2022/08/10 05:34:59;;;;;;;8.40;2.85;;;;;;;;;;5048055;28;20038;-65
2022/08/10 05:37:25;;;;;;;9.52;3.15;;;;;;;;;;5041384;28;20809;-65
2022/08/10 05:39:53;;;;;;;12.35;3.38;;;;;;;;;;5041540;28;20610;-65
2022/08/10 05:42:20;;;;;;;7.68;3.00;;;;;;;;;;5041832;28;20027;-66
2022/08/10 05:44:46;;;;;;;10.00;3.40;;;;;;;;;;5043126;28;21225;-65
2022/08/10 05:47:13;;;;;;;14.60;3.17;;;;;;;;;;5039609;28;20400;-65
2022/08/10 05:49:39;;;;;;;8.93;3.20;;;;;;;;;;5040596;28;20032;-65
2022/08/10 05:52:05;;;;;;;7.22;2.67;;;;;;;;;;5043124;28;20538;-65
2022/08/10 05:54:32;;;;;;;8.23;2.65;;;;;;;;;;5034094;28;20086;-65
2022/08/10 05:56:58;;;;;;;9.35;3.13;;;;;;;;;;5043121;28;20036;-65
2022/08/10 05:59:37;;;;;;;15.00;3.95;;;;;;;;;;5039858;28;20485;-65
2022/08/10 06:02:04;;;;;;;13.10;4.07;;;;;;;;;;5043438;28;20564;-65
2022/08/10 06:04:32;;;;;;;11.93;3.75;;;;;;;;;;5037098;28;20096;-65
2022/08/10 06:07:01;;;;;;;8.23;2.90;;;;;;;;;;5041120;28;20075;-65
2022/08/10 06:09:28;;;;;;;10.60;3.28;;;;;;;;;;5038693;28;20122;-65
2022/08/10 06:11:56;;;;;;;9.85;3.17;;;;;;;;;;5043538;28;20345;-65
2022/08/10 06:17:08;;;;;;;18.90;4.90;;;;;;;;;;5037476;28;20163;-65
2022/08/10 06:19:35;;;;;;;26.17;5.03;;;;;;;;;;5038200;28;20461;-65
2022/08/10 06:22:02;;;;;;;24.92;5.15;;;;;;;;;;5047645;28;20301;-65
2022/08/10 06:24:29;;;;;;;25.15;5.63;;;;;;;;;;5048022;28;20039;-65
2022/08/10 06:26:55;;;;;;;33.65;6.18;;;;;;;;;;5044660;28;20087;-65
2022/08/10 06:29:22;;;;;;;22.15;4.90;;;;;;;;;;5039081;28;20388;-65
2022/08/10 06:31:49;;;;;;;35.50;5.35;;;;;;;;;;5042267;28;20051;-64
2022/08/10 06:34:17;;;;;;;32.65;6.00;;;;;;;;;;5039132;28;20116;-65
2022/08/10 06:36:43;;;;;;;24.38;5.53;;;;;;;;;;5040929;28;20039;-65
2022/08/10 06:39:10;;;;;;;22.15;4.70;;;;;;;;;;5052231;28;20459;-64
2022/08/10 06:41:41;;;;;;;20.88;4.78;;;;;;;;;;5042650;28;20029;-65
2022/08/10 06:44:09;;;;;;;24.92;4.50;;;;;;;;;;5043602;28;20782;-65
2022/08/10 06:46:37;;;;;;;23.65;4.57;;;;;;;;;;5041301;28;20459;-65
2022/08/10 06:49:05;;;;;;;18.23;4.25;;;;;;;;;;5046576;28;20036;-65
2022/08/10 06:51:35;;;;;;;23.52;4.65;;;;;;;;;;5043654;28;21349;-64
2022/08/10 06:54:09;;;;;;;17.33;4.35;;;;;;;;;;5044883;28;20454;-65
2022/08/10 06:56:38;;;;;;;13.27;3.78;;;;;;;;;;5040983;28;20427;-66
2022/08/10 06:59:23;;;;;;;24.60;4.25;;;;;;;;;;5040343;28;20033;-66
2022/08/10 07:01:52;;;;;;;14.68;4.22;;;;;;;;;;5058869;28;20094;-65
2022/08/10 07:04:30;;;;;;;10.27;2.97;;;;;;;;;;5036826;28;20024;-65
2022/08/10 07:06:57;;;;;;;12.00;3.50;;;;;;;;;;5044516;28;20596;-65
2022/08/10 07:09:24;;;;;;;12.70;3.78;;;;;;;;;;5041479;28;20040;-67
2022/08/10 07:11:51;;;;;;;15.55;3.40;;;;;;;;;;5044011;28;20052;-65
2022/08/10 07:14:18;;;;;;;12.13;2.83;;;;;;;;;;5034056;28;20495;-65
2022/08/10 07:16:45;;;;;;;6.97;2.50;;;;;;;;;;5038449;28;20513;-65
2022/08/10 07:19:12;;;;;;;10.82;2.90;;;;;;;;;;5042723;28;20471;-65
2022/08/10 07:21:39;;;;;;;10.88;2.60;;;;;;;;;;5045015;28;20044;-64
2022/08/10 07:24:08;;;;;;;8.77;3.05;;;;;;;;;;5046083;28;20564;-65
2022/08/10 07:26:35;;;;;;;6.18;2.50;;;;;;;;;;5040684;28;20032;-65
2022/08/10 07:29:03;;;;;;;7.82;2.88;;;;;;;;;;5044689;28;20024;-65
2022/08/10 07:31:30;;;;;;;9.13;3.35;;;;;;;;;;5042339;28;20036;-65
2022/08/10 07:33:58;;;;;;;8.82;3.00;;;;;;;;;;5043492;28;20743;-65
2022/08/10 07:36:25;;;;;;;10.27;3.58;;;;;;;;;;5040707;28;20056;-65
2022/08/10 07:38:54;;;;;;;10.65;3.50;;;;;;;;;;5038470;28;20383;-65
2022/08/10 07:41:22;;;;;;;13.70;4.25;;;;;;;;;;5037148;28;20082;-65
2022/08/10 07:43:49;;;;;;;9.98;3.15;;;;;;;;;;5040917;28;20708;-65
2022/08/10 07:46:16;;;;;;;7.60;2.92;;;;;;;;;;5037239;28;20047;-65
2022/08/10 07:48:47;;;;;;;10.23;3.60;;;;;;;;;;5037730;28;20110;-65
2022/08/10 07:51:16;;;;;;;7.78;3.05;;;;;;;;;;5037697;28;20503;-66
2022/08/10 07:53:44;;;;;;;8.57;3.70;;;;;;;;;;5054133;28;20036;-65
2022/08/10 07:56:11;;;;;;;6.47;2.80;;;;;;;;;;5040432;28;20033;-65
2022/08/10 07:58:40;;;;;;;8.98;2.78;;;;;;;;;;5037284;28;20102;-65
2022/08/10 08:01:06;;;;;;;8.95;2.90;;;;;;;;;;5037643;28;20031;-65
2022/08/10 08:03:33;;;;;;;7.10;2.20;;;;;;;;;;5034441;28;20158;-64
2022/08/10 08:06:01;;;;;;;7.07;2.33;;;;;;;;;;5038781;28;20032;-65
2022/08/10 08:08:28;;;;;;;7.55;2.28;;;;;;;;;;5034868;28;20025;-65
2022/08/10 08:10:54;;;;;;;6.22;2.20;;;;;;;;;;5054779;28;20231;-65
2022/08/10 08:13:21;;;;;;;7.00;2.00;;;;;;;;;;5035397;28;20472;-65
2022/08/10 08:15:48;;;;;;;6.70;2.47;;;;;;;;;;5039294;28;20040;-65
2022/08/10 08:18:15;;;;;;;9.45;2.63;;;;;;;;;;5039686;28;20074;-65
2022/08/10 08:20:43;;;;;;;14.07;3.03;;;;;;;;;;5039920;28;20031;-65
2022/08/10 08:23:09;;;;;;;9.43;2.70;;;;;;;;;;5033185;28;20090;-65
2022/08/10 08:25:36;;;;;;;8.82;2.00;;;;;;;;;;5034391;28;20041;-65
2022/08/10 08:28:04;;;;;;;8.45;2.10;;;;;;;;;;5040188;28;20029;-65
2022/08/10 08:30:30;;;;;;;8.80;2.35;;;;;;;;;;5037956;28;20129;-67
2022/08/10 08:32:57;;;;;;;6.82;2.10;;;;;;;;;;5042343;28;20043;-65
2022/08/10 08:35:24;;;;;;;5.88;1.92;;;;;;;;;;5034091;28;20085;-66
2022/08/10 08:37:52;;;;;;;6.45;2.25;;;;;;;;;;5039681;28;20036;-65
2022/08/10 08:40:23;;;;;;;8.05;2.30;;;;;;;;;;5034808;28;20039;-65
2022/08/10 08:42:49;;;;;;;9.50;2.88;;;;;;;;;;5040297;28;20039;-64
2022/08/10 08:45:28;;;;;;;5.30;2.15;;;;;;;;;;5032380;28;20166;-65
2022/08/10 08:48:05;;;;;;;6.72;2.00;;;;;;;;;;5041812;28;20040;-65
2022/08/10 08:50:50;;;;;;;8.23;2.22;;;;;;;;;;5036517;28;20056;-65
2022/08/10 08:53:19;;;;;;;7.95;2.20;;;;;;;;;;5040377;28;20037;-65
2022/08/10 08:55:48;;;;;;;11.27;2.22;;;;;;;;;;5042163;28;20560;-65
2022/08/10 08:58:28;;;;;;;6.85;2.13;;;;;;;;;;5052126;28;20442;-64
2022/08/10 09:00:54;;;;;;;7.85;2.08;;;;;;;;;;5044354;28;20149;-65
2022/08/10 09:03:39;;;;;;;6.03;2.05;;;;;;;;;;5038121;28;20021;-65
2022/08/10 09:06:23;;;;;;;5.70;2.13;;;;;;;;;;5050198;28;20031;-65
2022/08/10 09:09:08;;;;;;;8.43;2.42;;;;;;;;;;5064433;28;20093;-67
2022/08/10 09:11:50;;;;;;;7.10;2.00;;;;;;;;;;5044022;28;20063;-68
2022/08/10 09:14:31;;;;;;;8.80;2.10;;;;;;;;;;5040511;28;20054;-65
2022/08/10 09:17:16;;;;;;;4.20;1.60;;;;;;;;;;5040676;28;20033;-65
2022/08/10 09:19:58;;;;;;;6.15;1.77;;;;;;;;;;5044638;28;20439;-66
2022/08/10 09:22:42;;;;;;;3.55;1.42;;;;;;;;;;5054892;28;20033;-65
2022/08/10 09:25:20;;;;;;;6.13;1.80;;;;;;;;;;5058420;28;20059;-65
2022/08/10 09:27:48;;;;;;;5.32;1.50;;;;;;;;;;5044404;28;20115;-65
2022/08/10 09:30:27;;;;;;;4.05;1.50;;;;;;;;;;5042407;28;20036;-66
2022/08/10 09:32:57;;;;;;;8.45;1.67;;;;;;;;;;5044760;28;20036;-65
2022/08/10 09:35:27;;;;;;;5.20;1.65;;;;;;;;;;5037006;28;20028;-66
2022/08/10 09:38:08;;;;;;;4.88;1.50;;;;;;;;;;5043603;28;20035;-66
2022/08/10 09:40:42;;;;;;;23.48;2.70;;;;;;;;;;5038990;28;20031;-66
2022/08/10 09:43:18;;;;;;;13.52;2.17;;;;;;;;;;5058436;28;20028;-66
2022/08/10 09:45:52;;;;;;;5.28;2.00;;;;;;;;;;5049345;28;20036;-66
2022/08/10 09:48:18;;;;;;;5.30;1.95;;;;;;;;;;5036492;28;20646;-66
2022/08/10 09:50:58;;;;;;;5.28;1.60;;;;;;;;;;5043339;28;20450;-64
2022/08/10 09:53:30;;;;;;;7.18;1.73;;;;;;;;;;5038078;28;20049;-64
2022/08/10 09:56:06;;;;;;;6.07;1.80;;;;;;;;;;5045396;28;20426;-65
2022/08/10 09:59:02;;;;;;;7.90;1.90;;;;;;;;;;5039905;28;20120;-65
2022/08/10 10:01:40;;;;;;;7.15;1.80;;;;;;;;;;5030637;28;20041;-66
2022/08/10 10:04:25;;;;;;;6.43;1.80;;;;;;;;;;5047801;28;20135;-65
2022/08/10 10:06:54;;;;;;;6.50;1.90;;;;;;;;;;5046036;28;20059;-66
2022/08/10 10:09:28;;;;;;;8.88;1.73;;;;;;;;;;5051313;28;20167;-65
2022/08/10 10:12:06;;;;;;;5.72;2.00;;;;;;;;;;5041511;28;20036;-65
2022/08/10 10:17:47;;;;;;;4.95;1.80;;;;;;;;;;5040367;28;20094;-66
2022/08/10 10:20:25;;;;;;;4.40;1.70;;;;;;;;;;5039828;28;20461;-66
2022/08/10 10:23:07;;;;;;;5.72;2.00;;;;;;;;;;5044911;28;20122;-65
2022/08/10 10:25:33;;;;;;;8.82;1.98;;;;;;;;;;5052198;28;20499;-66
2022/08/10 10:28:09;;;;;;;6.88;1.77;;;;;;;;;;5036854;28;20501;-66
2022/08/10 10:30:51;;;;;;;4.88;1.52;;;;;;;;;;5037977;28;20399;-66
2022/08/10 10:33:40;;;;;;;4.60;1.70;;;;;;;;;;5035592;28;20090;-65
2022/08/10 10:36:08;;;;;;;5.28;1.67;;;;;;;;;;4981577;28;20038;-68
2022/08/10 10:38:36;;;;;;;5.60;1.70;;;;;;;;;;4977814;28;20282;-66
2022/08/10 10:41:08;;;;;;;5.32;1.80;;;;;;;;;;4982543;28;20564;-66
2022/08/10 10:43:34;;;;;;;5.97;1.77;;;;;;;;;;4980338;28;20038;-66
2022/08/10 10:46:24;;;;;;;5.80;1.90;;;;;;;;;;4984611;28;20045;-66
2022/08/10 10:48:56;;;;;;;5.65;1.90;;;;;;;;;;4976563;28;20116;-65
2022/08/10 10:51:24;;;;;;;4.68;1.50;;;;;;;;;;4973214;28;20650;-65
2022/08/10 10:54:12;;;;;;;6.32;1.63;;;;;;;;;;4978303;28;20485;-65
2022/08/10 10:56:38;;;;;;;4.82;1.40;;;;;;;;;;4977120;28;20052;-65
2022/08/10 10:59:16;;;;;;;6.38;1.77;;;;;;;;;;4976835;28;20348;-65
2022/08/10 11:01:43;;;;;;;7.05;1.65;;;;;;;;;;4976539;28;20053;-65
2022/08/10 11:04:18;;;;;;;5.95;1.60;;;;;;;;;;4973899;28;20084;-65
2022/08/10 11:06:55;;;;;;;5.53;1.70;;;;;;;;;;4975854;28;20231;-66
2022/08/10 11:09:28;;;;;;;3.88;1.25;;;;;;;;;;4973610;28;20109;-66
2022/08/10 11:11:56;;;;;;;6.03;1.70;;;;;;;;;;4976350;28;20041;-66
2022/08/10 11:14:28;;;;;;;4.40;1.52;;;;;;;;;;5017244;28;20140;-66
2022/08/10 11:17:01;;;;;;;5.95;1.52;;;;;;;;;;5023817;28;20048;-68
2022/08/10 11:19:35;;;;;;;4.55;1.55;;;;;;;;;;5018797;28;20385;-65
2022/08/10 11:22:07;;;;;;;8.00;1.90;;;;;;;;;;5022301;28;20036;-66
2022/08/10 11:25:12;;;;;;;7.03;1.60;;;;;;;;;;5019931;28;20303;-64
2022/08/10 11:28:00;;;;;;;4.40;1.45;;;;;;;;;;5014992;28;20120;-65
2022/08/10 11:30:45;;;;;;;4.82;1.48;;;;;;;;;;5011530;28;20033;-66
2022/08/10 11:33:16;;;;;;;8.98;2.00;;;;;;;;;;5015902;28;20037;-66
2022/08/10 11:35:49;;;;;;;4.55;1.58;;;;;;;;;;5016222;28;20514;-66
2022/08/10 11:38:30;;;;;;;6.65;1.67;;;;;;;;;;4993481;28;20041;-66
2022/08/10 11:41:15;;;;;;;5.97;1.55;;;;;;;;;;5016835;28;20044;-66
2022/08/10 11:43:53;;;;;;;3.88;1.40;;;;;;;;;;5014403;28;20032;-66
2022/08/10 11:46:41;;;;;;;19.55;2.63;;;;;;;;;;4995627;28;20552;-66
2022/08/10 11:49:17;;;;;;;5.75;1.80;;;;;;;;;;5014489;28;20828;-67
2022/08/10 11:51:45;;;;;;;5.68;1.75;;;;;;;;;;5017798;28;20060;-67
2022/08/10 11:54:21;;;;;;;7.40;1.70;;;;;;;;;;5014454;28;20039;-67
2022/08/10 11:56:49;;;;;;;6.97;1.77;;;;;;;;;;4999658;28;20076;-67
2022/08/10 12:02:02;;;;;;;5.65;1.80;;;;;;;;;;5023156;28;20036;-67
2022/08/10 12:04:29;;;;;;;6.85;2.00;;;;;;;;;;5009294;28;20029;-66
2022/08/10 12:06:56;;;;;;;5.78;1.90;;;;;;;;;;5021796;28;20482;-67
2022/08/10 12:09:22;;;;;;;7.28;1.60;;;;;;;;;;5022867;28;20608;-67
2022/08/10 12:11:49;;;;;;;7.10;1.70;;;;;;;;;;5020182;28;20116;-65
2022/08/10 12:14:18;;;;;;;3.60;1.40;;;;;;;;;;5017359;28;20044;-65
2022/08/10 12:16:48;;;;;;;5.43;1.80;;;;;;;;;;5018774;28;20029;-64
2022/08/10 12:19:32;;;;;;;7.18;1.90;;;;;;;;;;5017666;28;20032;-66
2022/08/10 12:22:03;;;;;;;5.75;1.55;;;;;;;;;;5021919;28;20032;-66
2022/08/10 12:24:55;;;;;;;6.47;1.77;;;;;;;;;;5015443;28;20423;-66
2022/08/10 12:27:23;;;;;;;5.68;1.70;;;;;;;;;;5020498;28;20040;-66
2022/08/10 12:30:02;;;;;;;5.22;1.58;;;;;;;;;;5022382;28;20024;-66
2022/08/10 12:32:31;;;;;;;7.03;1.70;;;;;;;;;;5017505;28;20028;-66
2022/08/10 12:35:03;;;;;;;4.97;1.70;;;;;;;;;;5022010;28;20610;-66
2022/08/10 12:37:38;;;;;;;4.45;1.48;;;;;;;;;;5016612;28;20136;-66
2022/08/10 12:40:04;;;;;;;5.80;1.80;;;;;;;;;;5019496;28;20127;-66
2022/08/10 12:42:42;;;;;;;4.82;1.50;;;;;;;;;;5019887;28;20499;-65
2022/08/10 12:45:25;;;;;;;4.82;1.35;;;;;;;;;;5019480;28;20060;-66
2022/08/10 12:48:11;;;;;;;5.78;1.35;;;;;;;;;;5020767;28;20115;-68
2022/08/10 12:50:43;;;;;;;7.25;2.20;;;;;;;;;;5029166;28;20052;-67
2022/08/10 12:53:27;;;;;;;5.00;1.50;;;;;;;;;;5039385;28;20127;-65
2022/08/10 12:55:54;;;;;;;5.47;1.70;;;;;;;;;;5039624;28;20050;-64
2022/08/10 12:58:20;;;;;;;8.27;1.90;;;;;;;;;;5037772;28;20048;-64
2022/08/10 13:00:48;;;;;;;6.18;1.50;;;;;;;;;;5039019;28;20028;-65
2022/08/10 13:03:15;;;;;;;6.25;1.60;;;;;;;;;;5040333;28;20058;-65
2022/08/10 13:05:41;;;;;;;4.28;1.30;;;;;;;;;;5043465;28;20497;-65
2022/08/10 13:10:54;;;;;;;5.35;1.48;;;;;;;;;;5042626;28;20058;-63
2022/08/10 13:13:23;;;;;;;4.93;1.50;;;;;;;;;;5037019;28;20450;-64
2022/08/10 13:15:49;;;;;;;5.38;1.70;;;;;;;;;;5045145;28;20039;-64
2022/08/10 13:18:17;;;;;;;5.72;1.40;;;;;;;;;;5040771;28;20051;-63
2022/08/10 13:20:44;;;;;;;6.25;1.58;;;;;;;;;;5041220;28;20235;-64
2022/08/10 13:23:19;;;;;;;6.03;1.80;;;;;;;;;;5045304;28;20160;-64
2022/08/10 13:25:47;;;;;;;9.05;1.80;;;;;;;;;;5039605;28;20040;-63
2022/08/10 13:28:18;;;;;;;5.90;1.60;;;;;;;;;;5042542;28;20032;-64
2022/08/10 13:30:46;;;;;;;5.70;1.58;;;;;;;;;;5041511;28;20063;-64
2022/08/10 13:33:13;;;;;;;5.50;1.25;;;;;;;;;;5041762;28;20035;-64
2022/08/10 13:35:43;;;;;;;6.20;1.55;;;;;;;;;;5044173;28;20179;-63
2022/08/10 13:38:09;;;;;;;4.10;1.45;;;;;;;;;;5039427;28;20107;-63
2022/08/10 13:40:37;;;;;;;5.55;1.65;;;;;;;;;;5039066;28;20436;-64
2022/08/10 13:43:06;;;;;;;5.70;1.40;;;;;;;;;;5027638;28;20055;-64
2022/08/10 13:45:32;;;;;;;5.88;1.50;;;;;;;;;;5039168;28;20796;-64
2022/08/10 13:48:16;;;;;;;4.85;1.50;;;;;;;;;;5041977;28;20043;-65
2022/08/10 13:50:44;;;;;;;5.00;1.40;;;;;;;;;;5041297;28;20046;-64
2022/08/10 13:53:12;;;;;;;4.20;1.35;;;;;;;;;;5047791;28;20261;-64
2022/08/10 13:55:42;;;;;;;6.57;1.60;;;;;;;;;;5037972;28;21015;-64
2022/08/10 13:58:08;;;;;;;4.75;1.60;;;;;;;;;;5044171;28;20028;-64
2022/08/10 14:00:36;;;;;;;5.40;1.50;;;;;;;;;;5044157;28;20063;-63
2022/08/10 14:03:05;;;;;;;3.70;1.40;;;;;;;;;;5047106;28;20040;-63
2022/08/10 14:05:33;;;;;;;6.38;1.50;;;;;;;;;;5043915;28;20040;-62
2022/08/10 14:07:59;;;;;;;5.10;1.60;;;;;;;;;;5046931;28;20510;-62
2022/08/10 14:10:28;;;;;;;3.95;1.50;;;;;;;;;;5043005;28;20067;-66
2022/08/10 14:12:55;;;;;;;3.97;1.40;;;;;;;;;;5048526;28;20115;-65
2022/08/10 14:15:27;;;;;;;7.03;1.52;;;;;;;;;;5034884;28;20135;-65
2022/08/10 14:17:54;;;;;;;7.93;1.67;;;;;;;;;;5042712;28;20325;-65
2022/08/10 14:20:25;;;;;;;7.53;1.75;;;;;;;;;;5040114;28;20031;-65
2022/08/10 14:22:59;;;;;;;4.22;1.20;;;;;;;;;;5043602;28;20029;-65
2022/08/10 14:25:25;;;;;;;4.10;1.20;;;;;;;;;;5042508;28;20048;-66
2022/08/10 14:27:51;;;;;;;4.80;1.25;;;;;;;;;;5041048;28;20058;-65
2022/08/10 14:30:17;;;;;;;7.22;1.60;;;;;;;;;;5037689;28;20039;-63
2022/08/10 14:32:45;;;;;;;10.05;1.65;;;;;;;;;;5042319;28;20024;-64
2022/08/10 14:35:13;;;;;;;6.80;1.48;;;;;;;;;;5053631;28;20434;-66
2022/08/10 14:37:49;;;;;;;5.65;1.40;;;;;;;;;;5039310;28;20033;-64
2022/08/10 14:40:17;;;;;;;5.57;1.40;;;;;;;;;;5034553;28;20024;-65
2022/08/10 14:42:49;;;;;;;3.25;1.27;;;;;;;;;;5040002;28;20299;-64
2022/08/10 14:45:28;;;;;;;5.60;1.40;;;;;;;;;;5039128;28;20123;-66
2022/08/10 14:47:57;;;;;;;6.22;1.60;;;;;;;;;;5039745;28;20025;-65
2022/08/10 14:50:24;;;;;;;5.60;1.40;;;;;;;;;;5038714;28;20056;-65
2022/08/10 14:52:50;;;;;;;5.15;1.50;;;;;;;;;;5039454;28;20461;-66
2022/08/10 14:55:17;;;;;;;6.95;1.30;;;;;;;;;;5035274;28;20064;-66
2022/08/10 14:57:44;;;;;;;6.22;1.42;;;;;;;;;;5038079;28;20025;-66
2022/08/10 15:00:10;;;;;;;8.02;1.40;;;;;;;;;;5040895;28;20386;-65
2022/08/10 15:02:41;;;;;;;9.43;1.35;;;;;;;;;;5039901;28;20137;-64
2022/08/10 15:05:08;;;;;;;5.97;1.40;;;;;;;;;;5037419;28;20037;-65
2022/08/10 15:07:35;;;;;;;4.55;1.52;;;;;;;;;;5036405;28;20406;-66
2022/08/10 15:10:02;;;;;;;5.13;1.30;;;;;;;;;;5037985;28;20528;-65
2022/08/10 15:12:33;;;;;;;7.18;1.70;;;;;;;;;;5035314;28;20028;-65